sensor_id;sensor_type;location;lat;lon;timestamp;temperature;humidity
21592;DHT22;10958;50.892;3.992;2023-07-20T00:02:25;18.30;99.90
21592;DHT22;10958;50.892;3.992;2023-07-20T00:04:51;18.20;99.90
21592;DHT22;10958;50.892;3.992;2023-07-20T00:07:19;18.20;99.90
21592;DHT22;10958;50.892;3.992;2023-07-20T00:09:45;18.30;99.90
21592;DHT22;10958;50.892;3.992;2023-07-20T00:12:11;18.30;99.90
21592;DHT22;10958;50.892;3.992;2023-07-20T00:14:37;18.30;99.90
21592;DHT22;10958;50.892;3.992;2023-07-20T00:17:03;18.20;99.90
21592;DHT22;10958;50.892;3.992;2023-07-20T00:19:29;18.00;99.90
21592;DHT22;10958;50.892;3.992;2023-07-20T00:21:56;17.80;99.90
21592;DHT22;10958;50.892;3.992;2023-07-20T00:24:21;17.80;99.90
21592;DHT22;10958;50.892;3.992;2023-07-20T00:26:48;17.60;99.90
21592;DHT22;10958;50.892;3.992;2023-07-20T00:29:14;17.80;99.90
21592;DHT22;10958;50.892;3.992;2023-07-20T00:31:40;17.90;99.90
21592;DHT22;10958;50.892;3.992;2023-07-20T00:34:06;18.00;99.90
21592;DHT22;10958;50.892;3.992;2023-07-20T00:36:32;18.20;99.90
21592;DHT22;10958;50.892;3.992;2023-07-20T00:38:58;18.40;99.90
21592;DHT22;10958;50.892;3.992;2023-07-20T00:41:23;18.40;99.90
21592;DHT22;10958;50.892;3.992;2023-07-20T00:43:52;18.60;99.90
21592;DHT22;10958;50.892;3.992;2023-07-20T00:46:23;18.50;99.90
21592;DHT22;10958;50.892;3.992;2023-07-20T00:48:50;18.20;99.90
21592;DHT22;10958;50.892;3.992;2023-07-20T00:51:16;17.80;99.90
21592;DHT22;10958;50.892;3.992;2023-07-20T00:53:42;17.50;99.90
21592;DHT22;10958;50.892;3.992;2023-07-20T00:56:08;17.60;99.90
21592;DHT22;10958;50.892;3.992;2023-07-20T00:58:40;17.40;99.90
21592;DHT22;10958;50.892;3.992;2023-07-20T01:01:05;17.20;99.90
21592;DHT22;10958;50.892;3.992;2023-07-20T01:03:31;17.20;99.90
21592;DHT22;10958;50.892;3.992;2023-07-20T01:13:58;17.30;99.90
21592;DHT22;10958;50.892;3.992;2023-07-20T01:16:24;17.60;99.90
21592;DHT22;10958;50.892;3.992;2023-07-20T01:18:50;17.70;99.90
21592;DHT22;10958;50.892;3.992;2023-07-20T01:21:23;18.00;99.90
21592;DHT22;10958;50.892;3.992;2023-07-20T01:24:16;18.10;99.90
21592;DHT22;10958;50.892;3.992;2023-07-20T01:32:21;17.20;99.90
21592;DHT22;10958;50.892;3.992;2023-07-20T01:34:51;17.10;99.90
21592;DHT22;10958;50.892;3.992;2023-07-20T01:37:18;16.90;99.90
21592;DHT22;10958;50.892;3.992;2023-07-20T01:39:45;16.90;99.90
21592;DHT22;10958;50.892;3.992;2023-07-20T01:42:12;16.80;99.90
21592;DHT22;10958;50.892;3.992;2023-07-20T01:44:46;16.90;99.90
21592;DHT22;10958;50.892;3.992;2023-07-20T01:47:12;16.90;99.90
21592;DHT22;10958;50.892;3.992;2023-07-20T01:49:37;16.90;99.90
21592;DHT22;10958;50.892;3.992;2023-07-20T01:52:03;16.90;99.90
21592;DHT22;10958;50.892;3.992;2023-07-20T01:54:29;16.70;99.90
21592;DHT22;10958;50.892;3.992;2023-07-20T01:56:55;16.90;99.90
21592;DHT22;10958;50.892;3.992;2023-07-20T01:59:21;16.70;99.90
21592;DHT22;10958;50.892;3.992;2023-07-20T02:01:46;17.00;99.90
21592;DHT22;10958;50.892;3.992;2023-07-20T02:04:12;17.30;99.90
21592;DHT22;10958;50.892;3.992;2023-07-20T02:06:38;17.40;99.90
21592;DHT22;10958;50.892;3.992;2023-07-20T02:09:04;17.70;99.90
21592;DHT22;10958;50.892;3.992;2023-07-20T02:11:30;17.90;99.90
21592;DHT22;10958;50.892;3.992;2023-07-20T02:13:56;18.20;99.90
21592;DHT22;10958;50.892;3.992;2023-07-20T02:16:22;18.20;99.90
21592;DHT22;10958;50.892;3.992;2023-07-20T02:18:50;17.90;99.90
21592;DHT22;10958;50.892;3.992;2023-07-20T02:21:16;17.80;99.90
21592;DHT22;10958;50.892;3.992;2023-07-20T02:23:42;17.40;99.90
21592;DHT22;10958;50.892;3.992;2023-07-20T02:26:07;17.10;99.90
21592;DHT22;10958;50.892;3.992;2023-07-20T02:28:33;17.00;99.90
21592;DHT22;10958;50.892;3.992;2023-07-20T02:30:59;17.00;99.90
21592;DHT22;10958;50.892;3.992;2023-07-20T02:33:26;17.30;99.90
21592;DHT22;10958;50.892;3.992;2023-07-20T02:35:52;17.30;99.90
21592;DHT22;10958;50.892;3.992;2023-07-20T02:38:18;17.50;99.90
21592;DHT22;10958;50.892;3.992;2023-07-20T02:40:46;17.70;99.90
21592;DHT22;10958;50.892;3.992;2023-07-20T02:43:12;17.60;99.90
21592;DHT22;10958;50.892;3.992;2023-07-20T02:45:41;17.30;99.90
21592;DHT22;10958;50.892;3.992;2023-07-20T02:48:08;17.40;99.90
21592;DHT22;10958;50.892;3.992;2023-07-20T02:50:36;17.20;99.90
21592;DHT22;10958;50.892;3.992;2023-07-20T02:53:02;16.80;99.90
21592;DHT22;10958;50.892;3.992;2023-07-20T02:55:28;16.50;99.90
21592;DHT22;10958;50.892;3.992;2023-07-20T02:57:54;16.30;99.90
21592;DHT22;10958;50.892;3.992;2023-07-20T03:00:20;16.20;99.90
21592;DHT22;10958;50.892;3.992;2023-07-20T03:02:46;16.10;99.90
21592;DHT22;10958;50.892;3.992;2023-07-20T03:05:18;16.10;99.90
21592;DHT22;10958;50.892;3.992;2023-07-20T03:07:43;16.00;99.90
21592;DHT22;10958;50.892;3.992;2023-07-20T03:10:10;16.00;99.90
21592;DHT22;10958;50.892;3.992;2023-07-20T03:12:38;15.90;99.90
21592;DHT22;10958;50.892;3.992;2023-07-20T03:15:04;15.90;99.90
21592;DHT22;10958;50.892;3.992;2023-07-20T03:17:30;15.90;99.90
21592;DHT22;10958;50.892;3.992;2023-07-20T03:20:01;15.90;99.90
21592;DHT22;10958;50.892;3.992;2023-07-20T03:22:26;15.90;99.90
21592;DHT22;10958;50.892;3.992;2023-07-20T03:24:52;16.10;99.90
21592;DHT22;10958;50.892;3.992;2023-07-20T03:27:19;16.50;99.90
21592;DHT22;10958;50.892;3.992;2023-07-20T03:29:44;16.40;99.90
21592;DHT22;10958;50.892;3.992;2023-07-20T03:32:10;16.40;99.90
21592;DHT22;10958;50.892;3.992;2023-07-20T03:34:39;16.40;99.90
21592;DHT22;10958;50.892;3.992;2023-07-20T03:37:06;16.40;99.90
21592;DHT22;10958;50.892;3.992;2023-07-20T03:39:32;16.60;99.90
21592;DHT22;10958;50.892;3.992;2023-07-20T03:41:58;16.40;99.90
21592;DHT22;10958;50.892;3.992;2023-07-20T03:44:24;16.40;99.90
21592;DHT22;10958;50.892;3.992;2023-07-20T03:46:50;16.40;99.90
21592;DHT22;10958;50.892;3.992;2023-07-20T03:49:16;16.40;99.90
21592;DHT22;10958;50.892;3.992;2023-07-20T03:51:41;16.40;99.90
21592;DHT22;10958;50.892;3.992;2023-07-20T03:54:08;16.40;99.90
21592;DHT22;10958;50.892;3.992;2023-07-20T03:56:34;16.30;99.90
21592;DHT22;10958;50.892;3.992;2023-07-20T03:59:03;16.30;99.90
21592;DHT22;10958;50.892;3.992;2023-07-20T04:01:29;16.10;99.90
21592;DHT22;10958;50.892;3.992;2023-07-20T04:03:55;16.10;99.90
21592;DHT22;10958;50.892;3.992;2023-07-20T04:06:26;16.10;99.90
21592;DHT22;10958;50.892;3.992;2023-07-20T04:08:52;16.30;99.90
21592;DHT22;10958;50.892;3.992;2023-07-20T04:11:17;16.70;99.90
21592;DHT22;10958;50.892;3.992;2023-07-20T04:13:43;16.70;99.90
21592;DHT22;10958;50.892;3.992;2023-07-20T04:16:11;16.50;99.90
21592;DHT22;10958;50.892;3.992;2023-07-20T04:18:36;16.40;99.90
21592;DHT22;10958;50.892;3.992;2023-07-20T04:21:02;16.50;99.90
21592;DHT22;10958;50.892;3.992;2023-07-20T04:23:29;16.60;99.90
21592;DHT22;10958;50.892;3.992;2023-07-20T04:25:54;16.80;99.90
21592;DHT22;10958;50.892;3.992;2023-07-20T04:28:20;16.80;99.90
21592;DHT22;10958;50.892;3.992;2023-07-20T04:30:49;16.80;99.90
21592;DHT22;10958;50.892;3.992;2023-07-20T04:33:20;16.70;99.90
21592;DHT22;10958;50.892;3.992;2023-07-20T04:38:13;16.50;99.90
21592;DHT22;10958;50.892;3.992;2023-07-20T04:40:45;16.50;99.90
21592;DHT22;10958;50.892;3.992;2023-07-20T04:43:14;16.30;99.90
21592;DHT22;10958;50.892;3.992;2023-07-20T04:45:42;16.30;99.90
21592;DHT22;10958;50.892;3.992;2023-07-20T04:48:13;16.20;99.90
21592;DHT22;10958;50.892;3.992;2023-07-20T04:50:44;16.40;99.90
21592;DHT22;10958;50.892;3.992;2023-07-20T04:53:13;16.40;99.90
21592;DHT22;10958;50.892;3.992;2023-07-20T04:55:39;16.40;99.90
21592;DHT22;10958;50.892;3.992;2023-07-20T04:58:05;16.30;99.90
21592;DHT22;10958;50.892;3.992;2023-07-20T05:00:33;16.40;99.90
21592;DHT22;10958;50.892;3.992;2023-07-20T05:02:59;16.40;99.90
21592;DHT22;10958;50.892;3.992;2023-07-20T05:05:27;16.40;99.90
21592;DHT22;10958;50.892;3.992;2023-07-20T05:07:53;16.40;99.90
21592;DHT22;10958;50.892;3.992;2023-07-20T05:10:20;16.40;99.90
21592;DHT22;10958;50.892;3.992;2023-07-20T05:12:45;16.50;99.90
21592;DHT22;10958;50.892;3.992;2023-07-20T05:15:11;16.60;99.90
21592;DHT22;10958;50.892;3.992;2023-07-20T05:17:36;16.60;99.90
21592;DHT22;10958;50.892;3.992;2023-07-20T05:20:03;16.60;99.90
21592;DHT22;10958;50.892;3.992;2023-07-20T05:22:30;16.60;99.90
21592;DHT22;10958;50.892;3.992;2023-07-20T05:24:55;16.60;99.90
21592;DHT22;10958;50.892;3.992;2023-07-20T05:27:21;16.60;99.90
21592;DHT22;10958;50.892;3.992;2023-07-20T05:29:47;16.80;99.90
21592;DHT22;10958;50.892;3.992;2023-07-20T05:32:13;16.90;99.90
21592;DHT22;10958;50.892;3.992;2023-07-20T05:34:38;16.90;99.90
21592;DHT22;10958;50.892;3.992;2023-07-20T05:37:04;16.90;99.90
21592;DHT22;10958;50.892;3.992;2023-07-20T05:39:32;16.90;99.90
21592;DHT22;10958;50.892;3.992;2023-07-20T05:42:02;16.70;99.90
21592;DHT22;10958;50.892;3.992;2023-07-20T05:44:28;17.00;99.90
21592;DHT22;10958;50.892;3.992;2023-07-20T05:46:53;17.30;99.90
21592;DHT22;10958;50.892;3.992;2023-07-20T05:49:19;17.50;99.90
21592;DHT22;10958;50.892;3.992;2023-07-20T05:51:45;17.60;99.90
21592;DHT22;10958;50.892;3.992;2023-07-20T05:54:12;17.70;99.90
21592;DHT22;10958;50.892;3.992;2023-07-20T05:56:37;17.60;99.90
21592;DHT22;10958;50.892;3.992;2023-07-20T05:59:06;17.40;99.90
21592;DHT22;10958;50.892;3.992;2023-07-20T06:01:31;17.30;99.90
21592;DHT22;10958;50.892;3.992;2023-07-20T06:04:03;17.30;99.90
21592;DHT22;10958;50.892;3.992;2023-07-20T06:06:30;17.30;99.90
21592;DHT22;10958;50.892;3.992;2023-07-20T06:08:55;17.50;99.90
21592;DHT22;10958;50.892;3.992;2023-07-20T06:11:21;17.90;99.90
21592;DHT22;10958;50.892;3.992;2023-07-20T06:13:47;18.20;99.90
21592;DHT22;10958;50.892;3.992;2023-07-20T06:16:15;18.70;99.90
21592;DHT22;10958;50.892;3.992;2023-07-20T06:18:40;18.90;99.90
21592;DHT22;10958;50.892;3.992;2023-07-20T06:21:07;19.00;99.90
21592;DHT22;10958;50.892;3.992;2023-07-20T06:23:32;19.20;99.90
21592;DHT22;10958;50.892;3.992;2023-07-20T06:25:58;19.40;99.90
21592;DHT22;10958;50.892;3.992;2023-07-20T06:28:24;19.50;99.90
21592;DHT22;10958;50.892;3.992;2023-07-20T06:30:50;19.60;99.90
21592;DHT22;10958;50.892;3.992;2023-07-20T06:33:17;19.80;99.90
21592;DHT22;10958;50.892;3.992;2023-07-20T06:35:43;19.90;99.90
21592;DHT22;10958;50.892;3.992;2023-07-20T06:38:08;20.10;99.90
21592;DHT22;10958;50.892;3.992;2023-07-20T06:40:34;20.00;99.90
21592;DHT22;10958;50.892;3.992;2023-07-20T06:43:00;20.30;99.90
21592;DHT22;10958;50.892;3.992;2023-07-20T06:45:26;20.50;99.90
21592;DHT22;10958;50.892;3.992;2023-07-20T06:47:51;20.80;99.90
21592;DHT22;10958;50.892;3.992;2023-07-20T06:50:17;21.00;99.90
21592;DHT22;10958;50.892;3.992;2023-07-20T06:52:43;21.40;99.90
21592;DHT22;10958;50.892;3.992;2023-07-20T06:55:08;21.50;99.90
21592;DHT22;10958;50.892;3.992;2023-07-20T06:57:34;21.40;99.90
21592;DHT22;10958;50.892;3.992;2023-07-20T07:00:04;21.90;99.90
21592;DHT22;10958;50.892;3.992;2023-07-20T07:02:29;21.80;99.90
21592;DHT22;10958;50.892;3.992;2023-07-20T07:04:55;21.60;99.90
21592;DHT22;10958;50.892;3.992;2023-07-20T07:07:22;20.90;99.90
21592;DHT22;10958;50.892;3.992;2023-07-20T07:09:48;21.30;99.90
21592;DHT22;10958;50.892;3.992;2023-07-20T07:12:13;21.40;99.90
21592;DHT22;10958;50.892;3.992;2023-07-20T07:14:39;21.70;99.90
21592;DHT22;10958;50.892;3.992;2023-07-20T07:17:05;22.10;99.90
21592;DHT22;10958;50.892;3.992;2023-07-20T07:19:31;22.60;99.90
21592;DHT22;10958;50.892;3.992;2023-07-20T07:21:57;23.20;99.90
21592;DHT22;10958;50.892;3.992;2023-07-20T07:24:22;23.30;99.90
21592;DHT22;10958;50.892;3.992;2023-07-20T07:26:48;23.60;99.90
21592;DHT22;10958;50.892;3.992;2023-07-20T07:29:17;23.80;99.90
21592;DHT22;10958;50.892;3.992;2023-07-20T07:31:42;24.20;99.90
21592;DHT22;10958;50.892;3.992;2023-07-20T07:34:08;25.00;99.90
21592;DHT22;10958;50.892;3.992;2023-07-20T07:36:34;25.10;99.90
21592;DHT22;10958;50.892;3.992;2023-07-20T07:39:01;24.60;99.90
21592;DHT22;10958;50.892;3.992;2023-07-20T07:41:26;23.80;99.90
21592;DHT22;10958;50.892;3.992;2023-07-20T07:43:52;23.70;99.90
21592;DHT22;10958;50.892;3.992;2023-07-20T07:46:17;24.20;99.90
21592;DHT22;10958;50.892;3.992;2023-07-20T07:48:43;25.10;99.90
21592;DHT22;10958;50.892;3.992;2023-07-20T07:51:09;25.70;99.90
21592;DHT22;10958;50.892;3.992;2023-07-20T07:53:35;25.10;99.90
21592;DHT22;10958;50.892;3.992;2023-07-20T07:56:02;25.10;99.90
21592;DHT22;10958;50.892;3.992;2023-07-20T07:58:29;24.40;99.90
21592;DHT22;10958;50.892;3.992;2023-07-20T08:00:55;24.00;99.90
21592;DHT22;10958;50.892;3.992;2023-07-20T08:03:20;23.10;99.90
21592;DHT22;10958;50.892;3.992;2023-07-20T08:05:47;22.60;99.90
21592;DHT22;10958;50.892;3.992;2023-07-20T08:08:12;22.90;99.90
21592;DHT22;10958;50.892;3.992;2023-07-20T08:10:38;23.50;99.90
21592;DHT22;10958;50.892;3.992;2023-07-20T08:13:05;24.20;99.90
21592;DHT22;10958;50.892;3.992;2023-07-20T08:15:30;24.30;99.90
21592;DHT22;10958;50.892;3.992;2023-07-20T08:17:56;24.50;99.90
21592;DHT22;10958;50.892;3.992;2023-07-20T08:20:22;24.40;99.90
21592;DHT22;10958;50.892;3.992;2023-07-20T08:22:58;24.30;99.90
21592;DHT22;10958;50.892;3.992;2023-07-20T08:25:36;24.40;99.90
21592;DHT22;10958;50.892;3.992;2023-07-20T08:28:04;23.70;99.90
21592;DHT22;10958;50.892;3.992;2023-07-20T08:30:46;24.00;99.90
21592;DHT22;10958;50.892;3.992;2023-07-20T08:33:16;23.20;99.90
21592;DHT22;10958;50.892;3.992;2023-07-20T08:35:47;22.40;99.90
21592;DHT22;10958;50.892;3.992;2023-07-20T08:38:12;22.60;99.90
21592;DHT22;10958;50.892;3.992;2023-07-20T08:40:43;23.20;99.90
21592;DHT22;10958;50.892;3.992;2023-07-20T08:43:14;23.70;99.90
21592;DHT22;10958;50.892;3.992;2023-07-20T08:45:42;24.30;99.90
21592;DHT22;10958;50.892;3.992;2023-07-20T08:48:11;24.90;99.90
21592;DHT22;10958;50.892;3.992;2023-07-20T08:50:38;25.50;99.90
21592;DHT22;10958;50.892;3.992;2023-07-20T08:53:04;25.70;99.90
21592;DHT22;10958;50.892;3.992;2023-07-20T08:55:31;24.80;99.90
21592;DHT22;10958;50.892;3.992;2023-07-20T08:58:00;24.60;99.90
21592;DHT22;10958;50.892;3.992;2023-07-20T09:00:30;24.70;99.90
21592;DHT22;10958;50.892;3.992;2023-07-20T09:02:57;25.00;99.90
21592;DHT22;10958;50.892;3.992;2023-07-20T09:05:26;25.10;99.90
21592;DHT22;10958;50.892;3.992;2023-07-20T09:07:52;25.10;99.90
21592;DHT22;10958;50.892;3.992;2023-07-20T09:10:22;25.00;99.90
21592;DHT22;10958;50.892;3.992;2023-07-20T09:12:51;25.80;99.90
21592;DHT22;10958;50.892;3.992;2023-07-20T09:15:17;26.30;99.90
21592;DHT22;10958;50.892;3.992;2023-07-20T09:17:50;26.40;99.90
21592;DHT22;10958;50.892;3.992;2023-07-20T09:20:20;26.00;99.90
21592;DHT22;10958;50.892;3.992;2023-07-20T09:22:45;26.10;99.90
21592;DHT22;10958;50.892;3.992;2023-07-20T09:25:19;27.20;99.90
21592;DHT22;10958;50.892;3.992;2023-07-20T09:27:47;27.90;99.90
21592;DHT22;10958;50.892;3.992;2023-07-20T09:30:15;28.50;99.90
21592;DHT22;10958;50.892;3.992;2023-07-20T09:32:41;27.30;99.90
21592;DHT22;10958;50.892;3.992;2023-07-20T09:35:16;27.40;99.90
21592;DHT22;10958;50.892;3.992;2023-07-20T09:37:58;27.60;99.90
21592;DHT22;10958;50.892;3.992;2023-07-20T09:40:28;27.50;99.90
21592;DHT22;10958;50.892;3.992;2023-07-20T09:42:55;27.70;99.90
21592;DHT22;10958;50.892;3.992;2023-07-20T09:45:29;27.20;99.90
21592;DHT22;10958;50.892;3.992;2023-07-20T09:48:03;26.70;99.90
21592;DHT22;10958;50.892;3.992;2023-07-20T09:50:30;26.60;99.90
21592;DHT22;10958;50.892;3.992;2023-07-20T09:52:56;26.10;99.90
21592;DHT22;10958;50.892;3.992;2023-07-20T09:55:23;27.10;99.90
21592;DHT22;10958;50.892;3.992;2023-07-20T09:57:49;27.40;99.90
21592;DHT22;10958;50.892;3.992;2023-07-20T10:03:36;27.50;99.90
21592;DHT22;10958;50.892;3.992;2023-07-20T10:06:08;27.70;99.90
21592;DHT22;10958;50.892;3.992;2023-07-20T10:08:41;27.30;99.90
21592;DHT22;10958;50.892;3.992;2023-07-20T10:11:08;27.10;99.90
21592;DHT22;10958;50.892;3.992;2023-07-20T10:13:38;26.60;99.90
21592;DHT22;10958;50.892;3.992;2023-07-20T10:16:11;25.90;99.90
21592;DHT22;10958;50.892;3.992;2023-07-20T10:19:07;26.30;99.90
21592;DHT22;10958;50.892;3.992;2023-07-20T10:21:36;25.40;99.90
21592;DHT22;10958;50.892;3.992;2023-07-20T10:24:04;26.10;99.90
21592;DHT22;10958;50.892;3.992;2023-07-20T10:26:31;26.30;99.90
21592;DHT22;10958;50.892;3.992;2023-07-20T10:28:57;26.10;99.90
21592;DHT22;10958;50.892;3.992;2023-07-20T10:31:24;25.50;99.90
21592;DHT22;10958;50.892;3.992;2023-07-20T10:33:57;24.90;99.90
21592;DHT22;10958;50.892;3.992;2023-07-20T10:36:27;25.10;99.90
21592;DHT22;10958;50.892;3.992;2023-07-20T10:38:57;25.60;99.90
21592;DHT22;10958;50.892;3.992;2023-07-20T10:41:35;26.00;99.90
21592;DHT22;10958;50.892;3.992;2023-07-20T10:44:06;25.50;99.90
21592;DHT22;10958;50.892;3.992;2023-07-20T10:49:08;24.80;99.90
21592;DHT22;10958;50.892;3.992;2023-07-20T10:51:44;25.10;99.90
21592;DHT22;10958;50.892;3.992;2023-07-20T10:56:51;25.60;99.90
21592;DHT22;10958;50.892;3.992;2023-07-20T10:59:41;25.60;99.90
21592;DHT22;10958;50.892;3.992;2023-07-20T11:02:07;25.70;99.90
21592;DHT22;10958;50.892;3.992;2023-07-20T11:04:40;25.70;99.90
21592;DHT22;10958;50.892;3.992;2023-07-20T11:07:07;25.70;99.90
21592;DHT22;10958;50.892;3.992;2023-07-20T11:09:38;25.80;99.90
21592;DHT22;10958;50.892;3.992;2023-07-20T11:12:14;25.60;99.90
21592;DHT22;10958;50.892;3.992;2023-07-20T11:14:42;25.40;99.90
21592;DHT22;10958;50.892;3.992;2023-07-20T11:17:15;25.20;99.90
21592;DHT22;10958;50.892;3.992;2023-07-20T11:19:41;24.60;99.90
21592;DHT22;10958;50.892;3.992;2023-07-20T11:22:08;24.80;99.90
21592;DHT22;10958;50.892;3.992;2023-07-20T11:24:38;25.20;99.90
21592;DHT22;10958;50.892;3.992;2023-07-20T11:27:05;25.50;99.90
21592;DHT22;10958;50.892;3.992;2023-07-20T11:29:34;25.60;99.90
21592;DHT22;10958;50.892;3.992;2023-07-20T11:32:01;25.60;99.90
21592;DHT22;10958;50.892;3.992;2023-07-20T11:34:30;25.20;99.90
21592;DHT22;10958;50.892;3.992;2023-07-20T11:36:56;25.40;99.90
21592;DHT22;10958;50.892;3.992;2023-07-20T11:39:25;25.60;99.90
21592;DHT22;10958;50.892;3.992;2023-07-20T11:41:55;25.60;99.90
21592;DHT22;10958;50.892;3.992;2023-07-20T11:44:24;25.80;99.90
21592;DHT22;10958;50.892;3.992;2023-07-20T11:47:19;25.70;99.90
21592;DHT22;10958;50.892;3.992;2023-07-20T11:49:45;25.80;99.90
21592;DHT22;10958;50.892;3.992;2023-07-20T11:52:17;25.90;99.90
21592;DHT22;10958;50.892;3.992;2023-07-20T11:54:45;25.70;99.90
21592;DHT22;10958;50.892;3.992;2023-07-20T11:57:19;25.30;99.90
21592;DHT22;10958;50.892;3.992;2023-07-20T12:02:23;25.00;99.90
21592;DHT22;10958;50.892;3.992;2023-07-20T12:04:51;24.90;99.90
21592;DHT22;10958;50.892;3.992;2023-07-20T12:07:18;24.80;99.90
21592;DHT22;10958;50.892;3.992;2023-07-20T12:09:45;24.70;99.90
21592;DHT22;10958;50.892;3.992;2023-07-20T12:12:11;24.70;99.90
21592;DHT22;10958;50.892;3.992;2023-07-20T12:14:40;24.40;99.90
21592;DHT22;10958;50.892;3.992;2023-07-20T12:17:08;24.10;99.90
21592;DHT22;10958;50.892;3.992;2023-07-20T12:19:37;24.10;99.90
21592;DHT22;10958;50.892;3.992;2023-07-20T12:22:06;23.80;99.90
21592;DHT22;10958;50.892;3.992;2023-07-20T12:24:31;23.10;99.90
21592;DHT22;10958;50.892;3.992;2023-07-20T12:26:58;22.70;99.90
21592;DHT22;10958;50.892;3.992;2023-07-20T12:29:24;22.60;99.90
21592;DHT22;10958;50.892;3.992;2023-07-20T12:31:55;22.70;99.90
21592;DHT22;10958;50.892;3.992;2023-07-20T12:34:21;22.20;99.90
21592;DHT22;10958;50.892;3.992;2023-07-20T12:36:47;22.00;99.90
21592;DHT22;10958;50.892;3.992;2023-07-20T12:39:13;21.80;99.90
21592;DHT22;10958;50.892;3.992;2023-07-20T12:41:38;21.60;99.90
21592;DHT22;10958;50.892;3.992;2023-07-20T12:44:05;21.50;99.90
21592;DHT22;10958;50.892;3.992;2023-07-20T12:46:30;21.50;99.90
21592;DHT22;10958;50.892;3.992;2023-07-20T12:49:00;21.50;99.90
21592;DHT22;10958;50.892;3.992;2023-07-20T12:51:26;21.40;99.90
21592;DHT22;10958;50.892;3.992;2023-07-20T12:53:52;21.20;99.90
21592;DHT22;10958;50.892;3.992;2023-07-20T12:56:18;20.90;99.90
21592;DHT22;10958;50.892;3.992;2023-07-20T12:58:44;20.80;99.90
21592;DHT22;10958;50.892;3.992;2023-07-20T13:01:10;20.50;99.90
21592;DHT22;10958;50.892;3.992;2023-07-20T13:03:38;20.50;99.90
21592;DHT22;10958;50.892;3.992;2023-07-20T13:06:05;20.50;99.90
21592;DHT22;10958;50.892;3.992;2023-07-20T13:08:30;20.60;99.90
21592;DHT22;10958;50.892;3.992;2023-07-20T13:10:56;20.90;99.90
21592;DHT22;10958;50.892;3.992;2023-07-20T13:13:22;21.30;99.90
21592;DHT22;10958;50.892;3.992;2023-07-20T13:15:48;21.20;99.90
21592;DHT22;10958;50.892;3.992;2023-07-20T13:18:14;21.40;99.90
21592;DHT22;10958;50.892;3.992;2023-07-20T13:20:40;21.50;99.90
21592;DHT22;10958;50.892;3.992;2023-07-20T13:23:08;21.40;99.90
21592;DHT22;10958;50.892;3.992;2023-07-20T13:25:34;21.40;99.90
21592;DHT22;10958;50.892;3.992;2023-07-20T13:27:59;21.30;99.90
21592;DHT22;10958;50.892;3.992;2023-07-20T13:30:28;21.40;99.90
21592;DHT22;10958;50.892;3.992;2023-07-20T13:32:54;21.60;99.90
21592;DHT22;10958;50.892;3.992;2023-07-20T13:35:20;21.80;99.90
21592;DHT22;10958;50.892;3.992;2023-07-20T13:37:47;22.00;99.90
21592;DHT22;10958;50.892;3.992;2023-07-20T13:40:15;22.00;99.90
21592;DHT22;10958;50.892;3.992;2023-07-20T13:42:45;22.30;99.90
21592;DHT22;10958;50.892;3.992;2023-07-20T13:45:11;22.30;99.90
21592;DHT22;10958;50.892;3.992;2023-07-20T13:47:36;22.20;99.90
21592;DHT22;10958;50.892;3.992;2023-07-20T13:50:02;22.20;99.90
21592;DHT22;10958;50.892;3.992;2023-07-20T13:52:28;22.30;99.90
21592;DHT22;10958;50.892;3.992;2023-07-20T13:54:55;22.10;99.90
21592;DHT22;10958;50.892;3.992;2023-07-20T13:57:20;22.30;99.90
21592;DHT22;10958;50.892;3.992;2023-07-20T13:59:46;22.50;99.90
21592;DHT22;10958;50.892;3.992;2023-07-20T14:05:27;22.90;99.90
21592;DHT22;10958;50.892;3.992;2023-07-20T14:07:53;22.90;99.90
21592;DHT22;10958;50.892;3.992;2023-07-20T14:10:19;23.00;99.90
21592;DHT22;10958;50.892;3.992;2023-07-20T14:13:05;23.10;99.90
21592;DHT22;10958;50.892;3.992;2023-07-20T14:15:36;23.20;99.90
21592;DHT22;10958;50.892;3.992;2023-07-20T14:18:04;23.50;99.90
21592;DHT22;10958;50.892;3.992;2023-07-20T14:20:32;23.80;99.90
21592;DHT22;10958;50.892;3.992;2023-07-20T14:23:00;23.80;99.90
21592;DHT22;10958;50.892;3.992;2023-07-20T14:25:26;24.00;99.90
21592;DHT22;10958;50.892;3.992;2023-07-20T14:27:51;24.20;99.90
21592;DHT22;10958;50.892;3.992;2023-07-20T14:30:17;23.80;99.90
21592;DHT22;10958;50.892;3.992;2023-07-20T14:32:45;23.40;99.90
21592;DHT22;10958;50.892;3.992;2023-07-20T14:35:11;23.40;99.90
21592;DHT22;10958;50.892;3.992;2023-07-20T14:37:37;23.40;99.90
21592;DHT22;10958;50.892;3.992;2023-07-20T14:40:03;23.40;99.90
21592;DHT22;10958;50.892;3.992;2023-07-20T14:42:30;23.40;99.90
21592;DHT22;10958;50.892;3.992;2023-07-20T14:44:57;23.20;99.90
21592;DHT22;10958;50.892;3.992;2023-07-20T14:47:25;22.60;99.90
21592;DHT22;10958;50.892;3.992;2023-07-20T14:49:53;22.00;99.90
21592;DHT22;10958;50.892;3.992;2023-07-20T14:52:19;21.60;99.90
21592;DHT22;10958;50.892;3.992;2023-07-20T14:54:45;20.70;99.90
21592;DHT22;10958;50.892;3.992;2023-07-20T14:57:11;20.00;99.90
21592;DHT22;10958;50.892;3.992;2023-07-20T14:59:39;19.10;99.90
21592;DHT22;10958;50.892;3.992;2023-07-20T15:02:07;18.50;99.90
21592;DHT22;10958;50.892;3.992;2023-07-20T15:04:33;18.10;99.90
21592;DHT22;10958;50.892;3.992;2023-07-20T15:06:59;17.90;99.90
21592;DHT22;10958;50.892;3.992;2023-07-20T15:09:25;17.80;99.90
21592;DHT22;10958;50.892;3.992;2023-07-20T15:11:50;17.80;99.90
21592;DHT22;10958;50.892;3.992;2023-07-20T15:14:16;17.80;99.90
21592;DHT22;10958;50.892;3.992;2023-07-20T15:16:41;18.00;99.90
21592;DHT22;10958;50.892;3.992;2023-07-20T15:19:09;17.90;99.90
21592;DHT22;10958;50.892;3.992;2023-07-20T15:21:35;18.20;99.90
21592;DHT22;10958;50.892;3.992;2023-07-20T15:24:00;18.30;99.90
21592;DHT22;10958;50.892;3.992;2023-07-20T15:26:26;18.20;99.90
21592;DHT22;10958;50.892;3.992;2023-07-20T15:28:53;18.10;99.90
21592;DHT22;10958;50.892;3.992;2023-07-20T15:31:18;18.10;99.90
21592;DHT22;10958;50.892;3.992;2023-07-20T15:33:45;18.20;99.90
21592;DHT22;10958;50.892;3.992;2023-07-20T15:36:10;18.30;99.90
21592;DHT22;10958;50.892;3.992;2023-07-20T15:38:36;18.50;99.90
21592;DHT22;10958;50.892;3.992;2023-07-20T15:41:02;18.80;99.90
21592;DHT22;10958;50.892;3.992;2023-07-20T15:43:28;19.00;99.90
21592;DHT22;10958;50.892;3.992;2023-07-20T15:46:02;18.90;99.90
21592;DHT22;10958;50.892;3.992;2023-07-20T15:48:32;18.90;99.90
21592;DHT22;10958;50.892;3.992;2023-07-20T15:50:58;18.80;99.90
21592;DHT22;10958;50.892;3.992;2023-07-20T15:53:25;18.80;99.90
21592;DHT22;10958;50.892;3.992;2023-07-20T15:55:54;18.80;99.90
21592;DHT22;10958;50.892;3.992;2023-07-20T15:58:22;19.10;99.90
21592;DHT22;10958;50.892;3.992;2023-07-20T16:00:53;19.40;99.90
21592;DHT22;10958;50.892;3.992;2023-07-20T16:03:23;19.70;99.90